Time;durP1;ratioP1;P1;durP2;ratioP2;P2;SDS_P1;SDS_P2;PMS_P1;PMS_P2;Temp;Humidity;BMP_temperature;BMP_pressure;BME280_temperature;BME280_humidity;BME280_pressure;Samples;Min_cycle;Max_cycle;Signal;HPM_P1;HPM_P2
2022/06/15 00:10:41;;;;;;;;;;;;;;;;;;;;;
2022/06/15 00:18:37;;;;;;;11.50;6.15;;;11.20;99.90;;;;;;4633259;30;20561;-86
2022/06/15 00:21:51;;;;;;;7.07;5.32;;;11.80;99.90;;;;;;4719873;30;20052;-86
2022/06/15 00:25:13;;;;;;;7.03;5.63;;;11.80;99.90;;;;;;4798718;29;20048;-87
2022/06/15 00:28:17;;;;;;;8.73;6.40;;;11.10;99.90;;;;;;4756905;30;20401;-86
2022/06/15 00:35:17;;;;;;;7.45;5.93;;;12.00;99.90;;;;;;4809050;29;20073;-86
2022/06/15 00:42:02;;;;;;;7.65;5.05;;;12.10;99.90;;;;;;4806741;29;20053;-86
2022/06/15 00:51:40;;;;;;;7.85;4.93;;;13.10;99.90;;;;;;4786556;29;20098;-87
2022/06/15 00:54:28;;;;;;;9.18;5.57;;;12.20;99.90;;;;;;4810652;29;20050;-89
2022/06/15 00:57:27;;;;;;;9.30;5.05;;;12.30;99.90;;;;;;4776963;29;20545;-87
2022/06/15 01:00:21;;;;;;;7.07;5.03;;;12.20;99.90;;;;;;4793941;29;20061;-87
2022/06/15 01:02:58;;;;;;;7.97;4.93;;;12.30;99.90;;;;;;4792824;29;20150;-87
2022/06/15 01:05:36;;;;;;;9.45;4.88;;;12.30;99.90;;;;;;4777098;29;20500;-88
2022/06/15 01:08:46;;;;;;;6.40;4.22;;;12.20;99.90;;;;;;4792924;29;20447;-86
2022/06/15 01:11:34;;;;;;;8.52;4.95;;;12.30;99.90;;;;;;4781739;29;20138;-87
2022/06/15 01:14:27;;;;;;;7.65;5.13;;;12.20;99.90;;;;;;4786220;29;20058;-87
2022/06/15 01:16:59;;;;;;;8.85;5.45;;;12.20;99.90;;;;;;4794380;29;20057;-88
2022/06/15 01:19:52;;;;;;;8.70;5.20;;;12.20;99.90;;;;;;4809782;29;20046;-88
2022/06/15 01:22:34;;;;;;;7.95;5.03;;;12.20;99.90;;;;;;4793441;29;20042;-88
2022/06/15 01:25:41;;;;;;;6.93;4.80;;;12.20;99.90;;;;;;4802647;29;20043;-87
2022/06/15 01:28:36;;;;;;;7.78;4.90;;;11.50;99.90;;;;;;4793806;29;20069;-86
2022/06/15 01:31:34;;;;;;;;;;;12.20;99.90;;;;;;4790482;29;20043;-87
2022/06/15 01:34:35;;;;;;;7.28;5.05;;;11.90;99.90;;;;;;4804756;29;20017;-87
2022/06/15 01:37:30;;;;;;;8.77;4.88;;;12.20;99.90;;;;;;4790047;29;21156;-87
2022/06/15 01:40:34;;;;;;;11.02;5.65;;;12.10;99.90;;;;;;4803896;29;20050;-87
2022/06/15 01:43:20;;;;;;;6.35;5.40;;;12.10;99.90;;;;;;4805838;29;20046;-86
2022/06/15 01:46:01;;;;;;;5.25;4.70;;;12.10;99.90;;;;;;4784337;29;20455;-86
2022/06/15 01:49:03;;;;;;;7.53;4.57;;;11.80;99.90;;;;;;4779808;29;20065;-86
2022/06/15 01:51:37;;;;;;;7.65;4.80;;;12.20;99.90;;;;;;4792567;29;20141;-87
2022/06/15 01:54:10;;;;;;;7.10;6.07;;;12.00;99.90;;;;;;4793957;29;20058;-86
2022/06/15 01:56:47;;;;;;;6.20;4.40;;;11.90;99.90;;;;;;4794306;29;20053;-87
2022/06/15 01:59:54;;;;;;;8.27;4.75;;;11.90;99.90;;;;;;4812582;29;20052;-85
2022/06/15 02:02:50;;;;;;;9.55;5.25;;;11.90;99.90;;;;;;4795221;29;20050;-87
2022/06/15 02:05:30;;;;;;;6.72;5.05;;;11.80;99.90;;;;;;4807795;29;20061;-87
2022/06/15 02:07:56;;;;;;;5.20;4.50;;;11.60;99.90;;;;;;4810311;29;20046;-87
2022/06/15 02:10:35;;;;;;;5.57;4.85;;;11.40;99.90;;;;;;4798610;29;20195;-88
2022/06/15 02:13:52;;;;;;;9.07;5.35;;;11.50;99.90;;;;;;4807485;29;20050;-87
2022/06/15 02:16:24;;;;;;;6.80;4.95;;;11.50;99.90;;;;;;4754016;30;20051;-87
2022/06/15 02:18:55;;;;;;;7.78;5.13;;;11.50;99.90;;;;;;4766831;29;20054;-87
2022/06/15 02:21:26;;;;;;;6.70;5.50;;;11.50;99.90;;;;;;4796795;29;20431;-86
2022/06/15 02:23:56;;;;;;;6.97;5.30;;;11.50;99.90;;;;;;4811319;29;20403;-86
2022/06/15 02:26:27;;;;;;;9.65;5.22;;;11.50;99.90;;;;;;4798608;29;20054;-87
2022/06/15 02:28:56;;;;;;;8.77;4.97;;;11.50;99.90;;;;;;4792851;29;20055;-88
2022/06/15 02:31:25;;;;;;;8.07;4.80;;;11.50;99.90;;;;;;4793069;29;20046;-86
2022/06/15 02:33:54;;;;;;;10.43;5.05;;;11.40;99.90;;;;;;4807761;29;20124;-87
2022/06/15 02:36:21;;;;;;;7.43;5.85;;;11.50;99.90;;;;;;4825785;29;20499;-88
2022/06/15 02:38:49;;;;;;;8.80;5.70;;;11.40;99.90;;;;;;4804293;29;20523;-85
2022/06/15 02:41:20;;;;;;;12.48;6.15;;;11.50;99.90;;;;;;4807850;29;20487;-86
2022/06/15 02:43:50;;;;;;;8.15;5.20;;;11.50;99.90;;;;;;4802649;29;20109;-87
2022/06/15 02:46:17;;;;;;;7.55;4.80;;;11.40;99.90;;;;;;4810796;29;20054;-87
2022/06/15 02:48:44;;;;;;;6.53;4.75;;;11.30;99.90;;;;;;4787547;29;20142;-86
2022/06/15 02:51:19;;;;;;;6.60;4.75;;;11.30;99.90;;;;;;4807453;29;20384;-87
2022/06/15 02:53:48;;;;;;;7.75;5.20;;;11.20;99.90;;;;;;4790824;29;20054;-87
2022/06/15 02:56:16;;;;;;;7.78;5.50;;;11.20;99.90;;;;;;4792830;29;20067;-86
2022/06/15 02:58:45;;;;;;;8.05;5.50;;;11.20;99.90;;;;;;4807470;29;20055;-87
2022/06/15 03:01:11;;;;;;;11.10;6.97;;;11.10;99.90;;;;;;4784277;29;20050;-86
2022/06/15 03:03:38;;;;;;;6.68;5.30;;;11.10;99.90;;;;;;4790200;29;20404;-86
2022/06/15 03:06:16;;;;;;;7.43;4.45;;;11.10;99.90;;;;;;4790058;29;20058;-87
2022/06/15 03:08:50;;;;;;;4.80;4.32;;;10.30;99.90;;;;;;4790262;29;20054;-87
2022/06/15 03:11:16;;;;;;;5.00;4.50;;;10.80;99.90;;;;;;4793789;29;20058;-87
2022/06/15 03:13:48;;;;;;;5.03;3.50;;;10.50;99.90;;;;;;4792406;29;20146;-89
2022/06/15 03:16:19;;;;;;;5.35;3.78;;;10.30;99.90;;;;;;4778203;29;20142;-88
2022/06/15 03:18:48;;;;;;;5.50;3.85;;;10.40;99.90;;;;;;4784391;29;20082;-86
2022/06/15 03:21:14;;;;;;;5.93;4.55;;;10.40;99.90;;;;;;4796728;29;20046;-87
2022/06/15 03:23:43;;;;;;;5.70;4.50;;;10.50;99.90;;;;;;4793947;29;20133;-87
2022/06/15 03:26:09;;;;;;;6.28;4.50;;;10.50;99.90;;;;;;4793072;29;20460;-87
2022/06/15 03:28:35;;;;;;;5.97;4.53;;;10.70;99.90;;;;;;4792544;29;20058;-86
2022/06/15 03:31:02;;;;;;;7.45;5.18;;;10.80;99.90;;;;;;4792456;29;20058;-88
2022/06/15 03:33:28;;;;;;;8.98;4.97;;;10.90;99.90;;;;;;4795656;29;20108;-87
2022/06/15 03:35:55;;;;;;;8.25;5.13;;;11.20;99.90;;;;;;4780179;29;20074;-86
2022/06/15 03:38:24;;;;;;;5.80;4.82;;;11.00;99.90;;;;;;4788797;29;20071;-87
2022/06/15 03:40:53;;;;;;;7.60;5.03;;;11.10;99.90;;;;;;4777257;29;20055;-87
2022/06/15 03:43:21;;;;;;;7.07;4.43;;;11.10;99.90;;;;;;4785855;29;20484;-87
2022/06/15 03:45:50;;;;;;;7.03;4.55;;;11.10;99.90;;;;;;4795236;29;20054;-86
2022/06/15 03:48:19;;;;;;;8.20;5.40;;;11.00;99.90;;;;;;4795749;29;20110;-86
2022/06/15 03:50:45;;;;;;;5.30;4.65;;;11.00;99.90;;;;;;4791789;29;20054;-86
2022/06/15 03:53:11;;;;;;;6.50;5.05;;;11.10;99.90;;;;;;4807517;29;20053;-87
2022/06/15 03:55:40;;;;;;;7.70;5.53;;;11.10;99.90;;;;;;4794806;29;20062;-86
2022/06/15 03:58:07;;;;;;;6.00;5.00;;;11.30;99.90;;;;;;4795042;29;20054;-86
2022/06/15 04:00:33;;;;;;;8.85;5.50;;;11.30;99.90;;;;;;4783740;29;20046;-87
2022/06/15 04:03:04;;;;;;;5.80;4.38;;;11.40;99.90;;;;;;4810015;29;20122;-87
2022/06/15 04:05:39;;;;;;;6.68;5.10;;;12.00;99.90;;;;;;4779883;29;20066;-86
2022/06/15 04:10:52;;;;;;;9.43;4.93;;;11.20;99.90;;;;;;4797915;29;20287;-86
2022/06/15 04:13:21;;;;;;;6.80;5.53;;;11.20;99.90;;;;;;4795563;29;20416;-87
2022/06/15 04:15:56;;;;;;;9.25;5.90;;;11.30;99.90;;;;;;4795767;29;20053;-87
2022/06/15 04:18:24;;;;;;;8.73;5.80;;;11.40;99.90;;;;;;4777344;29;20050;-87
2022/06/15 04:20:53;;;;;;;8.95;5.88;;;12.50;99.90;;;;;;4795470;29;20105;-87
2022/06/15 04:23:22;;;;;;;8.45;6.28;;;11.60;99.90;;;;;;4798491;29;20187;-86
2022/06/15 04:25:58;;;;;;;8.10;5.43;;;11.60;99.90;;;;;;4785264;29;20093;-86
2022/06/15 04:28:25;;;;;;;8.32;6.13;;;11.90;99.90;;;;;;4794924;29;20065;-87
2022/06/15 04:30:54;;;;;;;8.63;5.72;;;12.00;99.90;;;;;;4794574;29;20389;-86
2022/06/15 04:33:24;;;;;;;7.93;5.78;;;12.10;99.90;;;;;;4794614;29;20099;-86
2022/06/15 04:35:50;;;;;;;8.38;5.72;;;12.20;99.90;;;;;;4776161;29;20051;-86
2022/06/15 04:38:16;;;;;;;7.75;5.97;;;12.30;99.90;;;;;;4791513;29;20119;-87
2022/06/15 04:40:44;;;;;;;8.07;5.43;;;12.40;99.90;;;;;;4791419;29;20432;-87
2022/06/15 04:43:16;;;;;;;12.38;5.63;;;12.50;99.90;;;;;;4776367;29;20097;-86
2022/06/15 04:46:03;;;;;;;10.77;5.85;;;12.00;99.90;;;;;;4776718;29;20061;-88
2022/06/15 04:49:19;;;;;;;8.35;5.53;;;13.00;99.90;;;;;;4776947;29;20090;-87
2022/06/15 04:52:08;;;;;;;9.32;5.57;;;12.70;99.90;;;;;;4801641;29;20061;-87
2022/06/15 04:55:19;;;;;;;8.98;5.05;;;12.00;99.90;;;;;;4738707;30;20117;-87
2022/06/15 05:01:16;;;;;;;;;;;12.90;99.90;;;;;;4817625;29;20138;-87
2022/06/15 05:04:27;;;;;;;7.70;5.18;;;13.00;99.90;;;;;;4785438;29;19921;-86
2022/06/15 05:07:43;;;;;;;;;;;;;;;;;;;;;
2022/06/15 05:14:38;;;;;;;7.35;5.43;;;13.20;99.90;;;;;;4786804;29;20074;-87
2022/06/15 05:17:28;;;;;;;5.53;4.68;;;13.20;99.90;;;;;;4771650;30;20047;-86
2022/06/15 05:20:23;;;;;;;9.10;5.15;;;13.30;99.90;;;;;;4782120;30;20139;-86
2022/06/15 05:30:34;;;;;;;6.68;5.55;;;12.90;99.90;;;;;;4695108;30;20125;-87
2022/06/15 05:33:27;;;;;;;8.57;5.53;;;12.70;99.90;;;;;;4666024;30;20062;-87
2022/06/15 05:36:30;;;;;;;8.07;5.28;;;13.20;99.90;;;;;;4664932;30;20108;-87
2022/06/15 05:39:40;;;;;;;7.05;4.90;;;13.20;99.90;;;;;;4714033;30;20065;-87
2022/06/15 05:42:21;;;;;;;8.32;5.10;;;13.70;99.90;;;;;;4753274;29;20049;-86
2022/06/15 05:45:00;;;;;;;6.88;4.65;;;14.10;99.90;;;;;;4792971;29;20058;-87
2022/06/15 05:48:09;;;;;;;7.97;4.65;;;13.70;99.90;;;;;;4786002;30;20051;-87
2022/06/15 05:50:46;;;;;;;8.80;4.00;;;14.20;99.90;;;;;;4794063;29;20151;-87
2022/06/15 05:53:18;;;;;;;7.22;4.13;;;14.30;99.90;;;;;;4783037;29;20492;-87
2022/06/15 05:56:16;;;;;;;6.57;4.07;;;14.60;99.90;;;;;;4793032;29;20416;-87
2022/06/15 05:59:16;;;;;;;7.95;4.28;;;14.30;99.90;;;;;;4788707;29;20062;-87
2022/06/15 06:01:59;;;;;;;6.32;3.97;;;14.60;99.90;;;;;;4801032;29;20046;-87
2022/06/15 06:04:29;;;;;;;9.65;5.70;;;15.40;99.90;;;;;;4793600;29;20061;-86
2022/06/15 06:07:07;;;;;;;8.07;4.47;;;15.10;99.90;;;;;;4773402;29;20055;-87
2022/06/15 06:09:44;;;;;;;5.80;3.75;;;15.20;99.90;;;;;;4761238;29;20077;-86
2022/06/15 06:12:21;;;;;;;6.72;4.32;;;14.70;99.90;;;;;;4784474;29;20047;-87
2022/06/15 06:14:56;;;;;;;5.20;4.30;;;15.00;99.90;;;;;;4773021;29;20094;-85
2022/06/15 06:17:25;;;;;;;6.90;4.85;;;14.70;99.90;;;;;;4788184;29;20094;-87
2022/06/15 06:24:04;;;;;;;6.78;4.40;;;15.30;99.90;;;;;;4786567;30;20112;-86
2022/06/15 06:26:38;;;;;;;7.50;4.40;;;15.10;99.90;;;;;;4767177;30;20066;-87
2022/06/15 06:29:19;;;;;;;7.22;4.40;;;15.50;99.90;;;;;;4770641;29;20086;-88
2022/06/15 06:31:50;;;;;;;7.07;4.18;;;15.70;99.90;;;;;;4761345;29;20514;-86
2022/06/15 06:34:16;;;;;;;8.15;4.05;;;15.70;99.90;;;;;;4773565;29;20192;-86
2022/06/15 06:36:53;;;;;;;4.93;3.60;;;15.90;99.90;;;;;;4788768;29;20141;-86
2022/06/15 06:39:24;;;;;;;5.25;3.63;;;15.90;99.90;;;;;;4793628;29;20408;-86
2022/06/15 06:41:53;;;;;;;5.93;3.33;;;16.30;99.90;;;;;;4809190;29;20076;-85
2022/06/15 06:44:24;;;;;;;3.28;2.53;;;16.70;99.90;;;;;;4827302;29;20054;-87
2022/06/15 06:50:43;;;;;;;5.80;2.97;;;17.10;99.90;;;;;;4753572;30;20565;-87
2022/06/15 06:53:21;;;;;;;4.95;2.20;;;17.40;99.90;;;;;;4741858;30;20047;-86
2022/06/15 07:00:23;;;;;;;5.88;2.28;;;18.40;99.90;;;;;;4736420;30;20051;-87
2022/06/15 07:03:35;;;;;;;5.63;2.20;;;18.00;99.90;;;;;;4717459;30;20064;-87
2022/06/15 07:06:47;;;;;;;3.83;2.00;;;18.30;99.90;;;;;;4720397;30;20143;-88
2022/06/15 07:13:44;;;;;;;4.82;1.98;;;17.30;99.90;;;;;;4734695;30;20059;-87
2022/06/15 07:24:18;;;;;;;5.10;2.30;;;17.90;99.90;;;;;;4736566;30;20080;-88
2022/06/15 07:27:47;;;;;;;3.17;2.20;;;17.50;99.90;;;;;;4724370;30;20055;-89
2022/06/15 07:30:53;;;;;;;6.45;2.50;;;17.90;99.90;;;;;;4723649;30;20056;-88
2022/06/15 07:41:39;;;;;;;5.53;3.15;;;18.30;99.90;;;;;;4700560;30;20040;-88
2022/06/15 07:51:26;;;;;;;4.63;3.05;;;18.50;99.90;;;;;;4662761;30;20113;-88
2022/06/15 07:54:50;;;;;;;6.68;3.30;;;18.50;99.90;;;;;;4662672;30;20428;-88
2022/06/15 07:57:27;;;;;;;6.85;3.10;;;18.50;99.90;;;;;;4669069;30;20691;-87
2022/06/15 08:03:57;;;;;;;7.30;3.25;;;19.00;99.90;;;;;;4752493;30;20032;-88
2022/06/15 08:17:36;;;;;;;;;;;;;;;;;;;;;
2022/06/15 08:38:56;;;;;;;4.05;2.13;;;18.50;99.90;;;;;;4717003;30;20107;-89
2022/06/15 08:42:07;;;;;;;5.47;2.08;;;18.50;99.90;;;;;;4714267;30;20053;-90
2022/06/15 08:44:57;;;;;;;5.90;2.47;;;19.40;99.90;;;;;;4722726;30;20598;-90
2022/06/15 08:51:11;;;;;;;3.65;2.10;;;19.10;99.90;;;;;;4817857;29;20461;-88
2022/06/15 08:54:09;;;;;;;3.83;1.85;;;19.70;99.90;;;;;;4808846;29;20090;-89
2022/06/15 08:56:57;;;;;;;2.58;2.20;;;20.00;99.90;;;;;;4793250;29;20054;-88
2022/06/15 09:00:09;;;;;;;;;;;;;;;;;;;;;
2022/06/15 09:03:28;;;;;;;3.40;1.67;;;19.90;99.90;;;;;;4805177;29;20500;-87
2022/06/15 09:06:38;;;;;;;4.72;1.83;;;19.90;99.90;;;;;;4776096;29;20047;-90
2022/06/15 09:09:19;;;;;;;2.45;1.70;;;20.30;99.90;;;;;;4776114;29;20191;-92
2022/06/15 09:16:03;;;;;;;4.10;2.00;;;20.50;99.90;;;;;;4791357;29;20062;-88
2022/06/15 09:22:19;;;;;;;4.65;1.70;;;20.90;99.90;;;;;;4808604;29;20101;-88
2022/06/15 09:25:41;;;;;;;4.80;1.83;;;21.20;99.90;;;;;;4808918;29;20514;-88
2022/06/15 09:28:50;;;;;;;2.60;1.52;;;20.90;99.90;;;;;;4782350;29;20137;-88
2022/06/15 09:32:54;;;;;;;3.88;1.75;;;21.70;99.90;;;;;;4793409;29;20088;-89
2022/06/15 09:35:31;;;;;;;3.53;1.60;;;21.90;99.90;;;;;;4793837;29;20054;-91
2022/06/15 09:38:41;;;;;;;;;;;;;;;;;;;;;
2022/06/15 09:41:33;;;;;;;3.00;1.70;;;22.70;99.90;;;;;;4809317;29;20082;-89
2022/06/15 09:44:15;;;;;;;3.63;1.50;;;22.80;99.90;;;;;;4807779;29;20129;-89
2022/06/15 09:47:20;;;;;;;3.60;1.50;;;22.40;99.90;;;;;;4810206;29;20437;-88
2022/06/15 09:50:05;;;;;;;5.13;1.63;;;23.00;99.90;;;;;;4816948;29;20061;-90
2022/06/15 09:52:55;;;;;;;5.30;1.90;;;22.50;99.90;;;;;;4827359;29;20571;-88
2022/06/15 09:56:08;;;;;;;5.00;1.80;;;22.80;99.90;;;;;;4817811;29;20057;-88
2022/06/15 09:59:32;;;;;;;4.30;1.70;;;22.10;99.90;;;;;;4806203;29;20051;-88
2022/06/15 10:02:40;;;;;;;4.95;1.85;;;23.20;99.90;;;;;;4775608;29;20047;-88
2022/06/15 10:05:36;;;;;;;2.47;1.35;;;23.30;99.90;;;;;;4784052;29;20054;-88
2022/06/15 10:08:42;;;;;;;2.35;1.50;;;23.90;99.90;;;;;;4802820;29;20166;-89
2022/06/15 10:11:18;;;;;;;2.75;1.25;;;22.20;92.40;;;;;;4789789;29;20108;-88
2022/06/15 10:13:50;;;;;;;2.20;1.25;;;23.80;99.90;;;;;;4790876;29;20443;-88
2022/06/15 10:17:07;;;;;;;3.75;1.60;;;23.80;99.90;;;;;;4819797;29;20118;-87
2022/06/15 10:23:28;;;;;;;4.88;1.67;;;24.60;99.90;;;;;;4768359;30;20085;-89
2022/06/15 10:26:01;;;;;;;3.00;1.58;;;22.40;94.00;;;;;;4738780;30;20063;-89
2022/06/15 10:28:55;;;;;;;3.70;1.63;;;22.10;99.90;;;;;;4739586;30;20098;-88
2022/06/15 10:32:06;;;;;;;3.25;1.80;;;21.40;99.50;;;;;;4708807;30;20542;-89
2022/06/15 10:35:25;;;;;;;2.90;1.40;;;21.80;99.30;;;;;;4720945;30;20048;-89
2022/06/15 10:42:38;;;;;;;3.03;1.65;;;22.50;96.70;;;;;;4702309;30;20080;-87
2022/06/15 10:45:07;;;;;;;3.95;1.85;;;22.70;85.20;;;;;;4694765;29;20120;-88
2022/06/15 10:47:54;;;;;;;5.03;1.58;;;21.60;95.60;;;;;;4778591;29;20142;-88
2022/06/15 10:50:37;;;;;;;4.18;1.75;;;22.20;92.10;;;;;;4785236;29;20918;-89
2022/06/15 10:53:27;;;;;;;3.70;1.63;;;22.40;99.40;;;;;;4794605;29;20125;-89
2022/06/15 11:02:21;;;;;;;;;;;;;;;;;;;;;
2022/06/15 11:05:18;;;;;;;2.67;1.55;;;21.00;99.30;;;;;;4808101;29;20050;-90
2022/06/15 11:07:56;;;;;;;3.30;1.70;;;21.30;99.90;;;;;;4793462;29;20141;-90
2022/06/15 11:11:28;;;;;;;3.28;1.70;;;20.40;99.90;;;;;;4807751;29;20538;-88
2022/06/15 11:14:19;;;;;;;5.15;1.80;;;20.70;99.90;;;;;;4798928;29;20043;-88
2022/06/15 11:20:08;;;;;;;4.32;2.17;;;21.80;99.90;;;;;;4809368;29;20050;-88
2022/06/15 11:22:40;;;;;;;3.03;1.88;;;21.80;97.10;;;;;;4808685;29;20050;-87
2022/06/15 11:25:16;;;;;;;2.78;1.70;;;22.10;83.20;;;;;;4810229;29;20042;-90
2022/06/15 11:27:49;;;;;;;3.50;1.70;;;22.70;81.60;;;;;;4810124;29;20058;-87
2022/06/15 11:30:30;;;;;;;3.03;1.92;;;23.20;66.00;;;;;;4799211;29;20097;-87
2022/06/15 11:33:51;;;;;;;4.35;2.20;;;23.60;55.90;;;;;;4781802;29;20137;-88
2022/06/15 11:36:56;;;;;;;4.70;2.08;;;24.10;29.40;;;;;;4790446;29;20050;-89
2022/06/15 11:40:14;;;;;;;2.05;1.60;;;23.60;58.00;;;;;;4811324;29;20046;-89
2022/06/15 11:42:50;;;;;;;2.63;1.77;;;23.90;55.90;;;;;;4788477;29;20038;-88
2022/06/15 11:53:04;;;;;;;3.75;2.10;;;22.70;80.30;;;;;;4810658;29;20100;-88
2022/06/15 11:55:54;;;;;;;3.65;2.20;;;23.00;78.30;;;;;;4720306;30;20523;-89
2022/06/15 12:03:15;;;;;;;2.92;2.13;;;22.10;79.70;;;;;;4700806;30;20055;-88
2022/06/15 12:09:48;;;;;;;5.63;2.28;;;21.90;79.90;;;;;;4767623;30;20156;-89
2022/06/15 12:16:42;;;;;;;2.45;2.25;;;22.50;74.90;;;;;;4764658;29;20726;-90
2022/06/15 12:19:42;;;;;;;5.30;2.40;;;20.50;62.80;;;;;;4795745;29;20452;-89
2022/06/15 12:22:17;;;;;;;4.97;2.20;;;20.10;75.50;;;;;;4792013;29;20054;-90
2022/06/15 12:36:36;;;;;;;5.80;2.35;;;20.20;95.40;;;;;;4793122;29;20058;-90
2022/06/15 12:39:37;;;;;;;4.68;2.42;;;21.10;91.90;;;;;;4774703;29;20055;-88
2022/06/15 12:42:17;;;;;;;3.97;2.55;;;22.50;91.50;;;;;;4794567;29;20059;-91
2022/06/15 12:45:15;;;;;;;5.32;2.58;;;21.50;46.30;;;;;;4795093;29;20063;-89
2022/06/15 12:48:10;;;;;;;3.35;2.10;;;21.50;47.70;;;;;;4809973;29;20054;-91
2022/06/15 12:55:11;;;;;;;;;;;;;;;;;;;;;
2022/06/15 12:58:41;;;;;;;7.55;2.33;;;22.30;48.20;;;;;;4807068;29;20043;-89
2022/06/15 13:01:57;;;;;;;3.58;2.30;;;22.10;33.90;;;;;;4756926;30;20572;-89
2022/06/15 13:04:59;;;;;;;2.58;2.00;;;21.90;34.60;;;;;;4789357;29;20047;-88
2022/06/15 13:26:03;;;;;;;4.03;2.55;;;21.50;15.40;;;;;;4826124;29;20099;-88
2022/06/15 13:29:20;;;;;;;4.07;2.08;;;21.20;14.10;;;;;;4791162;29;20126;-90
2022/06/15 13:43:03;;;;;;;4.57;2.20;;;22.00;25.80;;;;;;4679878;30;20053;-87
2022/06/15 13:45:52;;;;;;;5.03;2.30;;;21.70;30.50;;;;;;4636696;30;20440;-89
2022/06/15 13:49:14;;;;;;;4.63;2.20;;;21.50;31.50;;;;;;4650515;30;20077;-88
2022/06/15 13:51:58;;;;;;;3.88;2.15;;;21.10;37.80;;;;;;4678123;30;20081;-88
2022/06/15 13:56:03;;;;;;;4.30;2.38;;;22.10;36.50;;;;;;4672599;30;20136;-87
2022/06/15 13:58:02;;;;;;;3.47;2.10;;;21.50;7.80;;;;;;4727299;30;20093;-88
2022/06/15 14:00:38;;;;;;;3.65;1.88;;;22.00;15.20;;;;;;4789137;29;20126;-87
2022/06/15 14:03:34;;;;;;;2.35;1.80;;;22.40;9.80;;;;;;4792199;29;20498;-89
2022/06/15 14:06:15;;;;;;;3.95;2.08;;;23.50;9.10;;;;;;4792160;29;20496;-90
2022/06/15 14:09:01;;;;;;;3.88;2.10;;;22.30;1.00;;;;;;4792484;29;20056;-88
2022/06/15 14:12:13;;;;;;;4.22;2.13;;;22.10;1.00;;;;;;4821289;29;20114;-88
2022/06/15 14:15:17;;;;;;;;;;;;;;;;;;;;;
2022/06/15 14:18:25;;;;;;;3.58;2.05;;;23.00;1.00;;;;;;4820568;29;20061;-89
2022/06/15 14:21:32;;;;;;;3.15;1.90;;;21.80;1.00;;;;;;4796895;29;20088;-87
2022/06/15 14:24:19;;;;;;;3.03;2.13;;;22.60;1.00;;;;;;4792942;29;20061;-89
2022/06/15 14:26:50;;;;;;;2.70;1.90;;;22.00;1.00;;;;;;4794525;29;20101;-87
2022/06/15 14:29:58;;;;;;;3.60;1.85;;;22.60;1.00;;;;;;4790566;29;20193;-88
2022/06/15 14:36:54;;;;;;;;;;;;;;;;;;;;;
2022/06/15 14:47:50;;;;;;;5.78;1.98;;;22.10;1.00;;;;;;4681871;30;20046;-88
2022/06/15 15:01:13;;;;;;;4.78;2.08;;;22.50;1.00;;;;;;6146408;22;1442028;-90
2022/06/15 15:03:41;;;;;;;3.05;1.85;;;21.30;1.00;;;;;;6093896;23;20025;-94
2022/06/15 15:06:19;;;;;;;4.47;1.85;;;21.20;1.00;;;;;;6104571;23;20001;-93
2022/06/15 15:08:49;;;;;;;3.80;2.20;;;21.10;1.00;;;;;;6128088;23;20008;-95
2022/06/15 15:11:37;;;;;;;2.80;1.75;;;21.30;1.00;;;;;;6125163;23;20515;-94
2022/06/15 15:14:15;;;;;;;4.65;1.80;;;21.00;1.00;;;;;;6122767;23;20368;-94
2022/06/15 15:16:53;;;;;;;3.92;2.00;;;21.10;1.00;;;;;;6125604;23;20032;-95
2022/06/15 15:19:35;;;;;;;3.78;1.92;;;21.50;1.00;;;;;;6128339;23;20100;-92
2022/06/15 15:22:16;;;;;;;4.70;2.40;;;21.50;1.00;;;;;;6123165;23;20021;-95
2022/06/15 15:24:59;;;;;;;2.78;1.80;;;21.20;1.00;;;;;;6124406;23;20478;-94
2022/06/15 15:39:16;;;;;;;5.40;2.05;;;20.80;1.00;;;;;;6120618;23;20068;-94
2022/06/15 15:41:42;;;;;;;4.32;3.10;;;21.00;1.00;;;;;;6128148;23;20041;-96
2022/06/15 15:44:10;;;;;;;3.00;1.90;;;21.20;1.00;;;;;;6129924;23;20017;-95
2022/06/15 15:46:37;;;;;;;3.03;1.90;;;20.80;1.00;;;;;;6125972;23;20059;-95
2022/06/15 15:49:07;;;;;;;2.70;2.08;;;21.40;1.00;;;;;;6102389;23;20080;-96
2022/06/15 15:51:34;;;;;;;3.65;2.10;;;21.20;1.00;;;;;;6103860;23;20400;-96
2022/06/15 15:54:00;;;;;;;3.25;2.08;;;21.20;1.00;;;;;;6104226;23;20014;-95
2022/06/15 15:56:27;;;;;;;3.67;2.10;;;21.40;1.00;;;;;;6107839;23;20013;-94
2022/06/15 15:58:56;;;;;;;2.72;2.13;;;21.40;1.00;;;;;;6107756;23;20013;-95
2022/06/15 16:01:22;;;;;;;4.22;2.00;;;21.00;1.00;;;;;;6143296;23;20017;-93
2022/06/15 16:03:51;;;;;;;2.75;1.80;;;21.40;1.00;;;;;;6114920;23;20028;-92
2022/06/15 16:06:17;;;;;;;2.63;1.80;;;21.00;1.00;;;;;;6115975;23;20086;-91
2022/06/15 16:08:46;;;;;;;2.70;1.85;;;21.00;1.00;;;;;;6090442;23;20045;-93
2022/06/15 16:11:12;;;;;;;3.78;1.95;;;21.10;1.00;;;;;;6113659;23;20072;-90
2022/06/15 16:13:38;;;;;;;3.08;1.90;;;21.30;1.00;;;;;;6111058;23;20013;-89
2022/06/15 16:16:05;;;;;;;3.17;2.17;;;21.50;1.00;;;;;;6115638;23;20063;-95
2022/06/15 16:18:34;;;;;;;2.63;1.90;;;20.90;1.00;;;;;;6140372;23;20001;-93
2022/06/15 16:21:01;;;;;;;4.78;2.33;;;20.30;1.00;;;;;;6137668;23;20017;-93
2022/06/15 16:23:34;;;;;;;3.58;2.10;;;20.30;1.00;;;;;;6137227;23;20023;-92
2022/06/15 16:26:00;;;;;;;2.65;1.50;;;20.40;1.00;;;;;;6137825;23;20013;-93
2022/06/15 16:28:29;;;;;;;2.17;1.80;;;20.10;1.00;;;;;;6090693;23;20048;-92
2022/06/15 16:31:00;;;;;;;3.67;2.00;;;20.00;1.00;;;;;;6141342;23;20466;-92
2022/06/15 16:33:28;;;;;;;2.55;1.95;;;20.10;1.00;;;;;;6125075;23;20013;-90
2022/06/15 16:35:54;;;;;;;4.15;1.83;;;19.80;1.00;;;;;;6116061;23;20009;-90
2022/06/15 16:38:22;;;;;;;3.40;2.08;;;20.00;1.00;;;;;;6136969;23;20017;-92
2022/06/15 16:40:48;;;;;;;4.05;2.10;;;19.90;1.00;;;;;;6138719;23;20451;-89
2022/06/15 16:43:19;;;;;;;2.53;1.85;;;19.60;1.00;;;;;;6116115;23;20065;-93
2022/06/15 16:45:48;;;;;;;3.00;1.88;;;19.50;1.00;;;;;;6116365;23;20019;-93
2022/06/15 16:48:15;;;;;;;3.50;2.10;;;19.40;1.00;;;;;;6093973;23;20017;-89
2022/06/15 16:50:42;;;;;;;3.55;2.08;;;20.10;1.00;;;;;;6090580;23;20051;-90
2022/06/15 16:53:09;;;;;;;3.25;1.85;;;19.40;1.00;;;;;;6111676;23;20009;-90
2022/06/15 16:55:42;;;;;;;2.55;1.75;;;19.50;3.90;;;;;;6112484;23;20009;-89
2022/06/15 16:58:08;;;;;;;3.63;2.20;;;19.50;1.40;;;;;;6135562;23;20017;-90
2022/06/15 17:00:38;;;;;;;2.72;1.70;;;19.40;3.90;;;;;;6080902;23;20385;-88
2022/06/15 17:03:07;;;;;;;4.18;2.08;;;19.40;7.90;;;;;;6109052;23;20025;-91
2022/06/15 17:05:35;;;;;;;2.38;1.85;;;19.40;2.80;;;;;;6108100;23;20352;-90
2022/06/15 17:08:02;;;;;;;3.08;2.28;;;19.50;3.40;;;;;;6116552;23;20096;-91
2022/06/15 17:10:28;;;;;;;2.47;1.92;;;19.50;3.50;;;;;;6107414;23;20021;-90
2022/06/15 17:12:54;;;;;;;3.08;2.00;;;19.50;1.00;;;;;;6106080;23;20020;-91
2022/06/15 17:15:21;;;;;;;4.50;1.92;;;19.50;1.20;;;;;;6108636;23;20014;-89
2022/06/15 17:17:47;;;;;;;4.13;1.80;;;19.20;3.60;;;;;;6107828;23;20096;-91
2022/06/15 17:20:14;;;;;;;2.75;1.95;;;19.30;3.50;;;;;;6084432;23;20021;-91
2022/06/15 17:22:40;;;;;;;3.78;2.00;;;19.20;1.00;;;;;;6110633;23;20052;-91
2022/06/15 17:25:10;;;;;;;3.03;2.00;;;19.10;10.20;;;;;;6108694;23;20097;-90
2022/06/15 17:27:37;;;;;;;4.53;2.00;;;19.10;10.50;;;;;;6109379;23;20017;-91
2022/06/15 17:30:04;;;;;;;3.38;1.92;;;19.00;11.50;;;;;;6107254;23;20014;-89
2022/06/15 17:32:30;;;;;;;3.42;1.85;;;18.90;10.30;;;;;;6083207;23;20013;-89
2022/06/15 17:35:00;;;;;;;3.75;1.63;;;18.90;12.40;;;;;;6082787;23;20331;-89
2022/06/15 17:37:27;;;;;;;3.97;1.98;;;18.80;12.50;;;;;;6108723;23;20049;-91
2022/06/15 17:39:55;;;;;;;3.47;2.28;;;18.70;13.00;;;;;;6085241;23;20025;-90
2022/06/15 17:42:22;;;;;;;2.65;1.85;;;18.70;21.20;;;;;;6087337;23;20013;-91
2022/06/15 17:44:49;;;;;;;3.03;2.00;;;18.60;24.00;;;;;;6085335;23;20080;-90
2022/06/15 17:47:16;;;;;;;3.13;1.88;;;18.50;27.20;;;;;;6107478;23;20022;-92
2022/06/15 17:49:44;;;;;;;3.00;2.00;;;18.40;32.60;;;;;;6108280;23;20018;-90
2022/06/15 17:52:13;;;;;;;4.30;2.17;;;18.30;36.10;;;;;;6084109;23;20013;-91
2022/06/15 17:54:39;;;;;;;2.85;2.13;;;18.30;32.80;;;;;;6082769;23;20021;-92
2022/06/15 17:57:06;;;;;;;5.43;2.15;;;18.20;41.50;;;;;;6085723;23;20068;-93
2022/06/15 17:59:32;;;;;;;6.13;2.15;;;18.00;44.30;;;;;;6085491;23;20018;-91
2022/06/15 18:01:58;;;;;;;4.30;2.00;;;17.90;45.50;;;;;;6112485;23;20021;-92
2022/06/15 18:04:27;;;;;;;4.03;2.38;;;17.70;53.20;;;;;;6091701;23;20024;-91
2022/06/15 18:06:54;;;;;;;4.07;2.15;;;17.50;61.50;;;;;;6110786;23;20022;-92
2022/06/15 18:09:22;;;;;;;2.60;1.90;;;17.50;67.50;;;;;;6084967;23;20733;-91
2022/06/15 18:11:48;;;;;;;3.40;2.20;;;17.40;72.10;;;;;;6110102;23;20096;-91
2022/06/15 18:14:24;;;;;;;3.47;2.03;;;17.20;81.90;;;;;;6085762;23;20013;-91
2022/06/15 18:16:55;;;;;;;3.90;2.30;;;17.10;91.00;;;;;;6112983;23;20465;-93
2022/06/15 18:19:26;;;;;;;4.75;1.98;;;17.00;90.90;;;;;;6110916;23;20018;-94
2022/06/15 18:21:56;;;;;;;3.53;2.75;;;17.10;94.50;;;;;;6114108;23;20550;-92
2022/06/15 18:24:24;;;;;;;4.30;2.50;;;16.90;98.10;;;;;;6089830;23;20013;-92
2022/06/15 18:26:54;;;;;;;4.00;2.50;;;16.80;99.90;;;;;;6112656;23;20144;-93